الصفحة الرئيسية
METAR-TAF:

METAR-TAF

مطار :

مقاطعة ستانتون, كانساس, الولايات المتحدة

دائرة عرض: 37-35-07N, خط طول: 101-43-56W, ارتفاع: 1013 متر

مراقبة الطقس الحالي

تاريخ ووقت الإصدار 31 دقيقة قبل الساعة 18:35UTC
ريح 10 عقدة من الشمال تتزايد حتى 14 عقدة
درجة الحرارة 25°درجة مئوية
الرطوبة 61%
ضغط 1017 hPa
الرؤية: 16.1 كم
غيوم متفرقة على ارتفاع 2100 قدم
غيوم مفككة على ارتفاع 2900 قدم

METAR: KJHN 141835Z AUTO 36010G14KT 10SM SCT021 BKN029 25/17 A3002 RMK AO2 LTG DSNT N T02500169

زمن: 14:06 (19:06 UTC)


TAF: مفقودة

أرصاد الطقس والتوقعات من أكثر من 4000 مطار (تقارير الطقس للمطار METAR والتنبؤ بالطقس بالمطارTAF).

المحطات المتاحة هي النقط الصفراء والحمراء على الخريطة.

حرك المؤشر فوق النقطة لمعرفة اسم المحطة.

ثم انقر لمعرفة أرصاد وتوقعات الطقس.

لتغيير الخارطة: اضغط على الأزرار الخضراء مع رمز الصليب الأسود للتكبير. على الزر الأخضر مع شرطة للتصغير، أو على الأسهم الخضراء للخرائط المجاورة.


METAR-TAF: